Time;durP1;ratioP1;P1;durP2;ratioP2;P2;SDS_P1;SDS_P2;PMS_P1;PMS_P2;Temp;Humidity;BMP_temperature;BMP_pressure;BME280_temperature;BME280_humidity;BME280_pressure;Samples;Min_cycle;Max_cycle;Signal;HPM_P1;HPM_P2
2023/01/01 00:01:26;;;;;;;27.17;16.42;;;16.20;72.60;;;;;;5012888;28;20030;-86
2023/01/01 00:03:54;;;;;;;26.58;14.77;;;16.20;72.20;;;;;;4979539;28;20029;-84
2023/01/01 00:06:20;;;;;;;27.58;16.17;;;16.20;71.60;;;;;;5013020;28;20029;-85
2023/01/01 00:08:47;;;;;;;32.13;19.77;;;16.20;71.80;;;;;;4995404;28;20486;-85
2023/01/01 00:11:13;;;;;;;29.80;18.58;;;16.20;72.00;;;;;;4996091;28;20046;-84
2023/01/01 00:13:40;;;;;;;33.17;18.20;;;16.20;72.30;;;;;;4995897;28;20478;-85
2023/01/01 00:16:11;;;;;;;21.60;11.23;;;16.20;72.00;;;;;;4996263;28;20022;-85
2023/01/01 00:18:37;;;;;;;27.38;13.35;;;16.20;72.00;;;;;;5012957;28;20036;-86
2023/01/01 00:21:08;;;;;;;22.10;10.45;;;16.20;71.90;;;;;;5013814;28;20033;-87
2023/01/01 00:23:35;;;;;;;20.88;8.55;;;16.20;72.20;;;;;;5014638;28;20041;-87
2023/01/01 00:26:01;;;;;;;14.75;8.45;;;16.20;72.20;;;;;;5013583;28;20030;-87
2023/01/01 00:28:26;;;;;;;19.27;9.68;;;16.20;72.20;;;;;;5013363;28;20168;-87
2023/01/01 00:30:52;;;;;;;13.82;8.00;;;16.20;72.10;;;;;;5012664;28;20109;-86
2023/01/01 00:33:18;;;;;;;16.63;8.02;;;16.20;72.20;;;;;;4996207;28;20087;-87
2023/01/01 00:35:46;;;;;;;14.82;7.05;;;16.20;72.20;;;;;;4998486;28;20060;-86
2023/01/01 00:38:12;;;;;;;16.33;6.32;;;16.20;71.90;;;;;;5016555;28;20117;-86
2023/01/01 00:40:38;;;;;;;15.50;6.45;;;16.20;71.50;;;;;;5000741;28;20117;-86
2023/01/01 00:43:03;;;;;;;15.80;5.80;;;16.20;71.90;;;;;;5016543;28;20029;-90
2023/01/01 00:45:29;;;;;;;12.95;4.93;;;16.20;72.20;;;;;;5016592;28;20033;-88
2023/01/01 00:47:55;;;;;;;14.18;4.38;;;16.20;72.80;;;;;;5000075;28;20026;-88
2023/01/01 00:50:21;;;;;;;14.65;4.53;;;16.20;73.10;;;;;;5033236;28;20026;-86
2023/01/01 00:52:47;;;;;;;12.20;4.00;;;16.10;73.70;;;;;;5018165;28;20030;-87
2023/01/01 00:55:13;;;;;;;11.13;3.85;;;16.10;73.90;;;;;;5016337;28;20096;-86
2023/01/01 00:57:39;;;;;;;11.75;4.65;;;16.00;74.10;;;;;;5016227;28;20478;-87
2023/01/01 01:00:06;;;;;;;12.52;4.40;;;16.00;74.20;;;;;;5016187;28;20034;-87
2023/01/01 01:02:31;;;;;;;11.75;3.70;;;16.00;74.40;;;;;;4999839;28;20029;-87
2023/01/01 01:05:02;;;;;;;16.90;4.45;;;16.00;74.50;;;;;;4999831;28;20386;-88
2023/01/01 01:07:33;;;;;;;14.00;3.30;;;15.90;74.80;;;;;;5015766;28;20030;-85
2023/01/01 01:09:58;;;;;;;11.93;3.28;;;15.90;74.50;;;;;;4999889;28;20429;-88
2023/01/01 01:12:24;;;;;;;10.75;2.92;;;15.90;74.40;;;;;;5016375;28;20030;-90
2023/01/01 01:14:50;;;;;;;12.23;2.40;;;15.90;74.10;;;;;;4983556;28;20084;-86
2023/01/01 01:17:15;;;;;;;13.60;2.17;;;15.90;74.10;;;;;;4999601;28;20054;-84
2023/01/01 01:19:41;;;;;;;9.75;1.85;;;15.90;74.00;;;;;;4983094;28;20375;-86
2023/01/01 01:22:07;;;;;;;7.38;2.28;;;15.90;74.30;;;;;;4999250;28;20038;-89
2023/01/01 01:24:32;;;;;;;7.65;1.90;;;15.80;73.90;;;;;;5015684;28;20037;-80
2023/01/01 01:26:58;;;;;;;10.30;1.70;;;15.90;73.80;;;;;;5015094;28;20037;-82
2023/01/01 01:29:24;;;;;;;12.65;1.95;;;15.80;74.00;;;;;;4982466;28;20084;-82
2023/01/01 01:31:50;;;;;;;9.15;1.67;;;15.80;74.00;;;;;;4982457;28;20026;-81
2023/01/01 01:34:16;;;;;;;10.50;2.13;;;15.80;73.80;;;;;;5014821;28;20022;-81
2023/01/01 01:36:42;;;;;;;8.70;2.13;;;15.80;74.30;;;;;;4999030;28;20037;-81
2023/01/01 01:39:11;;;;;;;8.68;1.73;;;15.80;74.60;;;;;;5014946;28;20030;-81
2023/01/01 01:41:36;;;;;;;6.85;1.30;;;15.70;74.40;;;;;;5014932;28;20018;-84
2023/01/01 01:44:23;;;;;;;6.88;1.80;;;15.70;74.30;;;;;;5014805;28;20029;-83
2023/01/01 01:46:49;;;;;;;12.95;2.05;;;15.60;73.70;;;;;;5013561;28;20038;-83
2023/01/01 01:49:30;;;;;;;8.77;1.85;;;15.70;73.50;;;;;;5015717;28;20026;-84
2023/01/01 01:51:59;;;;;;;6.15;2.17;;;15.70;73.80;;;;;;5015126;28;20034;-83
2023/01/01 01:54:26;;;;;;;6.95;1.38;;;15.60;73.80;;;;;;5015460;28;20037;-83
2023/01/01 01:57:03;;;;;;;12.15;2.92;;;15.60;73.70;;;;;;4998577;28;20413;-81
2023/01/01 01:59:32;;;;;;;6.28;1.30;;;15.60;74.00;;;;;;5014963;28;20148;-84
2023/01/01 02:01:59;;;;;;;7.47;1.63;;;15.60;73.40;;;;;;5014884;28;20061;-84
2023/01/01 02:04:25;;;;;;;10.80;1.52;;;15.70;73.60;;;;;;5014898;28;20041;-82
2023/01/01 02:06:53;;;;;;;4.40;1.15;;;15.60;73.70;;;;;;4998478;28;20034;-82
2023/01/01 02:09:20;;;;;;;7.80;1.85;;;15.60;73.70;;;;;;5014515;28;20120;-83
2023/01/01 02:11:45;;;;;;;10.30;1.40;;;15.60;73.90;;;;;;5014865;28;20026;-83
2023/01/01 02:14:11;;;;;;;5.25;1.33;;;15.60;73.50;;;;;;5014965;28;20028;-83
2023/01/01 02:16:41;;;;;;;4.43;1.02;;;15.60;73.50;;;;;;5015878;28;20053;-82
2023/01/01 02:19:37;;;;;;;7.85;1.25;;;15.60;73.40;;;;;;5015514;28;20404;-82
2023/01/01 02:22:12;;;;;;;5.97;1.17;;;15.60;74.10;;;;;;5022830;28;19998;-81
2023/01/01 02:25:12;;;;;;;6.28;1.27;;;15.60;74.30;;;;;;5030427;28;20022;-83
2023/01/01 02:28:07;;;;;;;6.68;1.65;;;15.60;73.80;;;;;;5021972;28;20478;-82
2023/01/01 02:30:35;;;;;;;8.00;1.77;;;15.60;74.10;;;;;;5015794;28;20066;-82
2023/01/01 02:33:19;;;;;;;7.45;1.65;;;15.60;73.30;;;;;;5017320;28;20113;-83
2023/01/01 02:35:52;;;;;;;9.45;2.45;;;15.60;73.50;;;;;;5017566;28;20057;-82
2023/01/01 02:38:21;;;;;;;7.65;1.73;;;15.50;73.10;;;;;;5015340;28;20501;-81
2023/01/01 02:40:50;;;;;;;6.65;1.83;;;15.60;72.70;;;;;;5014904;28;20033;-83
2023/01/01 02:43:16;;;;;;;6.32;1.65;;;15.60;72.60;;;;;;5014882;28;20061;-83
2023/01/01 02:45:41;;;;;;;10.77;2.42;;;15.60;71.80;;;;;;4997826;28;20053;-83
2023/01/01 02:48:40;;;;;;;7.68;1.20;;;15.60;72.20;;;;;;5014055;28;20496;-83
2023/01/01 02:51:33;;;;;;;9.88;1.63;;;15.60;71.80;;;;;;5014284;28;20037;-82
2023/01/01 02:54:17;;;;;;;13.17;2.37;;;15.60;71.90;;;;;;5014166;28;20022;-83
2023/01/01 02:56:48;;;;;;;6.63;1.27;;;15.50;71.80;;;;;;5013755;28;20277;-83
2023/01/01 03:02:30;;;;;;;6.63;1.25;;;15.60;71.30;;;;;;5013852;28;20033;-83
2023/01/01 03:05:16;;;;;;;8.55;1.30;;;15.60;71.40;;;;;;5014960;28;20097;-82
2023/01/01 03:08:06;;;;;;;8.75;1.10;;;15.60;71.50;;;;;;5012985;28;20073;-83
2023/01/01 03:10:44;;;;;;;9.20;1.30;;;15.60;71.60;;;;;;5013513;28;20030;-82
2023/01/01 03:13:47;;;;;;;4.03;1.13;;;15.60;71.90;;;;;;5020075;28;20034;-87
2023/01/01 03:16:34;;;;;;;9.18;1.40;;;15.50;71.60;;;;;;4999640;28;20120;-82
2023/01/01 03:19:18;;;;;;;7.95;1.30;;;15.50;71.90;;;;;;5029907;28;20525;-82
2023/01/01 03:21:53;;;;;;;6.13;1.20;;;15.50;71.00;;;;;;5013042;28;20025;-82
2023/01/01 03:24:28;;;;;;;4.70;0.90;;;15.50;71.00;;;;;;5013145;28;20076;-84
2023/01/01 03:27:00;;;;;;;9.05;0.98;;;15.50;70.90;;;;;;5014191;28;20026;-83
2023/01/01 03:29:29;;;;;;;9.20;1.92;;;15.50;70.60;;;;;;5014401;28;20026;-84
2023/01/01 03:31:58;;;;;;;4.68;1.30;;;15.50;70.60;;;;;;5013122;28;20394;-83
2023/01/01 03:34:32;;;;;;;8.40;1.65;;;15.50;71.10;;;;;;5013234;28;20048;-84
2023/01/01 03:37:01;;;;;;;7.45;1.33;;;15.50;71.40;;;;;;5012934;28;20076;-82
2023/01/01 03:39:37;;;;;;;9.45;1.20;;;15.50;70.80;;;;;;5012762;28;20382;-83
2023/01/01 03:42:27;;;;;;;7.28;1.45;;;15.50;71.30;;;;;;5014371;28;20026;-84
2023/01/01 03:45:23;;;;;;;5.40;1.00;;;15.40;71.00;;;;;;5012738;28;20030;-83
2023/01/01 03:47:49;;;;;;;6.07;1.10;;;15.50;71.30;;;;;;5013890;28;20466;-82
2023/01/01 03:50:15;;;;;;;5.50;0.80;;;15.40;71.60;;;;;;5029381;28;20022;-83
2023/01/01 03:52:56;;;;;;;5.63;0.95;;;15.50;71.50;;;;;;5012771;28;20069;-82
2023/01/01 03:55:36;;;;;;;6.05;1.35;;;15.40;71.40;;;;;;5013748;28;20026;-83
2023/01/01 03:58:08;;;;;;;5.47;1.13;;;15.40;71.80;;;;;;5012689;28;20053;-82
2023/01/01 04:01:01;;;;;;;4.40;1.25;;;15.40;71.80;;;;;;5012789;28;20129;-83
2023/01/01 04:03:30;;;;;;;7.60;1.05;;;15.30;72.00;;;;;;4997124;28;20041;-83
2023/01/01 04:05:55;;;;;;;8.43;1.58;;;15.30;71.60;;;;;;5012492;28;20049;-83
2023/01/01 04:08:24;;;;;;;4.85;1.20;;;15.30;71.50;;;;;;4996220;28;20073;-83
2023/01/01 04:10:56;;;;;;;4.60;0.90;;;15.30;72.60;;;;;;4979495;28;20117;-86
2023/01/01 04:13:22;;;;;;;3.75;1.10;;;15.30;71.60;;;;;;5012815;28;20049;-87
2023/01/01 04:15:48;;;;;;;6.53;1.02;;;15.30;71.90;;;;;;4997800;28;20185;-88
2023/01/01 04:18:14;;;;;;;5.50;1.02;;;15.30;72.10;;;;;;5013671;28;20030;-88
2023/01/01 04:20:39;;;;;;;6.75;1.45;;;15.30;71.70;;;;;;4998264;28;20034;-88
2023/01/01 04:23:05;;;;;;;5.72;1.20;;;15.30;72.20;;;;;;4998183;28;20037;-88
2023/01/01 04:25:31;;;;;;;6.22;1.20;;;15.10;72.30;;;;;;5013635;28;20077;-90
2023/01/01 04:27:57;;;;;;;4.72;1.20;;;15.30;72.20;;;;;;5014909;28;20026;-87
2023/01/01 04:30:23;;;;;;;7.72;1.10;;;15.30;72.60;;;;;;5014090;28;20021;-88
2023/01/01 04:32:53;;;;;;;9.68;1.00;;;15.20;72.30;;;;;;5013624;28;20514;-89
2023/01/01 04:35:18;;;;;;;5.22;1.13;;;15.30;72.70;;;;;;5014849;28;20108;-88
2023/01/01 04:37:45;;;;;;;7.43;1.33;;;15.20;72.70;;;;;;5013436;28;20060;-87
2023/01/01 04:40:12;;;;;;;7.47;1.13;;;15.20;72.80;;;;;;5013108;28;20030;-88
2023/01/01 04:42:38;;;;;;;12.75;1.25;;;15.20;72.90;;;;;;5013116;28;20060;-88
2023/01/01 04:45:04;;;;;;;6.97;1.10;;;15.20;73.00;;;;;;5013211;28;20026;-88
2023/01/01 04:47:29;;;;;;;8.63;1.38;;;15.20;73.40;;;;;;4996689;28;20831;-89
2023/01/01 04:49:55;;;;;;;5.05;0.85;;;15.20;73.30;;;;;;5013606;28;20029;-89
2023/01/01 04:52:23;;;;;;;6.38;1.40;;;15.20;73.50;;;;;;5013831;28;20026;-89
2023/01/01 04:54:49;;;;;;;10.20;1.13;;;15.20;73.80;;;;;;5013754;28;20033;-87
2023/01/01 04:57:15;;;;;;;5.80;1.63;;;15.20;74.10;;;;;;4981067;28;20030;-90
2023/01/01 04:59:43;;;;;;;7.63;1.52;;;15.20;74.20;;;;;;4997142;28;20066;-89
2023/01/01 05:02:09;;;;;;;4.85;0.95;;;15.20;74.10;;;;;;5013882;28;20517;-89
2023/01/01 05:04:35;;;;;;;5.13;1.00;;;15.20;74.10;;;;;;4996944;28;20030;-88
2023/01/01 05:07:03;;;;;;;6.90;1.40;;;15.20;74.20;;;;;;5012884;28;20054;-88
2023/01/01 05:09:29;;;;;;;6.40;1.00;;;15.20;74.30;;;;;;4996570;28;20561;-88
2023/01/01 05:11:55;;;;;;;4.90;1.10;;;15.20;74.50;;;;;;5012819;28;20068;-89
2023/01/01 05:14:20;;;;;;;6.43;1.25;;;15.20;75.00;;;;;;5013923;28;20016;-88
2023/01/01 05:16:46;;;;;;;7.32;0.98;;;15.20;75.00;;;;;;5013049;28;20026;-88
2023/01/01 05:19:12;;;;;;;5.78;1.17;;;15.10;74.80;;;;;;4996724;28;20459;-90
2023/01/01 05:21:39;;;;;;;5.82;1.08;;;15.10;75.00;;;;;;5015401;28;20220;-89
2023/01/01 05:24:07;;;;;;;5.07;1.20;;;15.10;75.40;;;;;;4984653;28;20489;-90
2023/01/01 05:26:36;;;;;;;7.20;0.80;;;15.10;75.70;;;;;;5016626;28;20507;-89
2023/01/01 05:29:03;;;;;;;11.20;1.25;;;15.10;75.90;;;;;;5016817;28;20091;-88
2023/01/01 05:31:32;;;;;;;7.57;1.48;;;15.00;76.00;;;;;;5016447;28;20540;-88
2023/01/01 05:33:58;;;;;;;7.30;1.33;;;15.00;76.20;;;;;;5016645;28;20018;-90
2023/01/01 05:36:27;;;;;;;6.40;1.35;;;15.00;76.30;;;;;;5016191;28;20026;-88
2023/01/01 05:38:53;;;;;;;5.25;0.95;;;15.00;76.60;;;;;;5016253;28;20548;-89
2023/01/01 05:41:20;;;;;;;6.43;1.00;;;14.90;76.70;;;;;;5016176;28;20105;-90
2023/01/01 05:43:46;;;;;;;7.00;0.88;;;14.90;76.10;;;;;;5015651;28;20032;-86
2023/01/01 05:46:16;;;;;;;4.63;0.90;;;14.90;72.50;;;;;;5015884;28;20507;-90
2023/01/01 05:48:45;;;;;;;5.18;0.77;;;14.90;72.80;;;;;;5015814;28;20029;-90
2023/01/01 05:51:13;;;;;;;4.25;0.70;;;14.90;73.00;;;;;;5015841;28;20022;-88
2023/01/01 05:53:40;;;;;;;7.72;0.80;;;14.90;73.40;;;;;;5015741;28;20018;-89
2023/01/01 05:56:06;;;;;;;5.07;1.30;;;14.80;74.00;;;;;;5016029;28;20026;-89
2023/01/01 05:58:34;;;;;;;4.25;0.68;;;14.80;74.70;;;;;;5016050;28;20490;-90
2023/01/01 06:01:13;;;;;;;5.10;0.88;;;14.80;75.30;;;;;;5015773;28;20029;-90
2023/01/01 06:03:40;;;;;;;8.57;1.10;;;14.80;75.90;;;;;;5016020;28;20036;-91
2023/01/01 06:06:09;;;;;;;4.90;1.00;;;14.70;76.30;;;;;;5016178;28;20113;-89
2023/01/01 06:08:34;;;;;;;6.22;0.85;;;14.60;76.60;;;;;;5015881;28;20049;-88
2023/01/01 06:11:02;;;;;;;3.60;0.90;;;14.60;76.50;;;;;;5015624;28;20029;-91
2023/01/01 06:13:28;;;;;;;3.88;0.70;;;14.60;75.30;;;;;;5016092;28;20014;-89
2023/01/01 06:15:59;;;;;;;4.45;0.70;;;14.60;75.40;;;;;;5002374;28;20026;-89
2023/01/01 06:18:28;;;;;;;6.68;0.88;;;14.60;75.50;;;;;;5019846;28;20034;-88
2023/01/01 06:20:53;;;;;;;8.18;0.88;;;14.60;75.60;;;;;;5017232;28;20034;-90
2023/01/01 06:23:22;;;;;;;5.70;0.95;;;14.60;74.70;;;;;;5017861;28;20120;-90
2023/01/01 06:25:47;;;;;;;5.05;0.70;;;14.50;74.80;;;;;;5018424;28;20117;-88
2023/01/01 06:28:13;;;;;;;2.20;0.50;;;14.50;74.90;;;;;;5016583;28;20121;-90
2023/01/01 06:30:39;;;;;;;7.13;0.80;;;14.40;75.20;;;;;;5016715;28;20029;-90
2023/01/01 06:33:04;;;;;;;6.97;0.75;;;14.50;75.80;;;;;;5016899;28;20032;-88
2023/01/01 06:35:30;;;;;;;4.93;0.80;;;14.40;76.30;;;;;;5017466;28;20382;-90
2023/01/01 06:37:58;;;;;;;6.07;0.95;;;14.40;76.90;;;;;;5017696;28;20073;-90
2023/01/01 06:40:24;;;;;;;4.82;0.95;;;14.30;77.30;;;;;;5016453;28;20033;-89
2023/01/01 06:42:50;;;;;;;7.72;1.08;;;14.30;77.40;;;;;;5005895;28;20067;-90
2023/01/01 06:45:15;;;;;;;5.72;0.95;;;14.30;78.00;;;;;;5034829;28;20017;-90
2023/01/01 06:47:41;;;;;;;7.07;0.85;;;14.20;78.40;;;;;;5034181;28;20025;-90
2023/01/01 06:50:07;;;;;;;9.18;1.42;;;14.20;78.60;;;;;;5034270;28;20489;-90
2023/01/01 06:52:33;;;;;;;9.50;0.82;;;14.20;78.90;;;;;;5034640;28;20021;-89
2023/01/01 06:55:01;;;;;;;7.07;1.42;;;14.10;79.10;;;;;;5034800;28;20376;-89
2023/01/01 06:57:26;;;;;;;6.43;0.93;;;14.10;79.10;;;;;;5034591;28;20056;-90
2023/01/01 06:59:52;;;;;;;4.50;0.70;;;14.10;79.10;;;;;;5035208;28;20021;-91
2023/01/01 07:02:18;;;;;;;10.65;1.05;;;14.10;78.60;;;;;;5034546;28;20592;-91
2023/01/01 07:04:43;;;;;;;4.53;0.85;;;14.10;77.10;;;;;;5034495;28;20025;-90
2023/01/01 07:07:09;;;;;;;3.40;0.52;;;14.00;75.80;;;;;;5033906;28;20079;-89
2023/01/01 07:09:45;;;;;;;3.55;0.70;;;14.00;75.10;;;;;;5017786;28;20188;-91
2023/01/01 07:12:11;;;;;;;3.83;0.50;;;13.90;75.60;;;;;;5034098;28;20048;-91
2023/01/01 07:14:36;;;;;;;4.97;0.43;;;13.80;75.70;;;;;;5034566;28;20119;-90
2023/01/01 07:17:07;;;;;;;3.50;0.25;;;13.70;76.40;;;;;;5034843;28;20029;-90
2023/01/01 07:19:33;;;;;;;3.45;0.40;;;13.60;77.20;;;;;;5041517;28;20521;-89
2023/01/01 07:21:58;;;;;;;4.00;0.50;;;13.60;77.80;;;;;;5042293;28;20048;-90
2023/01/01 07:24:24;;;;;;;5.22;0.50;;;13.50;78.30;;;;;;5041562;28;20031;-91
2023/01/01 07:26:50;;;;;;;2.78;0.55;;;13.40;79.00;;;;;;5019114;28;20444;-90
2023/01/01 07:29:16;;;;;;;2.50;0.30;;;13.30;79.70;;;;;;5018040;28;20030;-91
2023/01/01 07:31:46;;;;;;;4.68;0.57;;;13.30;80.40;;;;;;5035118;28;20022;-91
2023/01/01 07:34:18;;;;;;;2.40;0.20;;;13.20;81.50;;;;;;5035974;28;20028;-91
2023/01/01 07:36:44;;;;;;;5.78;0.60;;;13.10;82.10;;;;;;5036596;28;20071;-91
2023/01/01 07:39:10;;;;;;;4.15;0.43;;;13.00;82.20;;;;;;5036923;28;20022;-90
2023/01/01 07:41:36;;;;;;;7.38;0.90;;;12.90;83.30;;;;;;5037938;28;20529;-90
2023/01/01 07:44:01;;;;;;;4.80;0.50;;;12.80;84.10;;;;;;5018836;28;20026;-88
2023/01/01 07:46:27;;;;;;;5.72;0.75;;;12.70;84.50;;;;;;5034295;28;20103;-87
2023/01/01 07:48:53;;;;;;;4.85;0.40;;;12.60;84.90;;;;;;5034800;28;20366;-89
2023/01/01 07:51:19;;;;;;;2.50;0.50;;;12.50;85.10;;;;;;5018013;28;20029;-88
2023/01/01 07:53:45;;;;;;;7.05;0.50;;;12.40;85.50;;;;;;5018701;28;20106;-89
2023/01/01 07:56:10;;;;;;;3.05;0.30;;;12.40;85.70;;;;;;5018394;28;20025;-89
2023/01/01 07:58:40;;;;;;;3.90;0.38;;;12.30;86.20;;;;;;5034155;28;20033;-89
2023/01/01 08:01:08;;;;;;;3.92;0.47;;;12.30;86.10;;;;;;5034423;28;20021;-89
2023/01/01 08:03:34;;;;;;;2.47;0.50;;;12.20;86.10;;;;;;5017564;28;20057;-89
2023/01/01 08:06:04;;;;;;;5.25;0.65;;;12.20;86.30;;;;;;5033659;28;20063;-89
2023/01/01 08:08:29;;;;;;;4.60;1.00;;;12.20;86.30;;;;;;5033268;28;20041;-89
2023/01/01 08:11:00;;;;;;;5.65;0.40;;;12.30;86.50;;;;;;5033760;28;20064;-88
2023/01/01 08:13:25;;;;;;;3.58;0.40;;;12.30;86.50;;;;;;5033943;28;20078;-89
2023/01/01 08:15:51;;;;;;;6.38;1.40;;;12.30;86.50;;;;;;5034111;28;20021;-88
2023/01/01 08:18:17;;;;;;;4.45;0.60;;;12.30;86.20;;;;;;5017302;28;20542;-90
2023/01/01 08:20:42;;;;;;;5.72;0.70;;;12.30;86.30;;;;;;5033893;28;20032;-89
2023/01/01 08:23:08;;;;;;;2.67;0.43;;;12.30;86.40;;;;;;5033714;28;20037;-83
2023/01/01 08:25:34;;;;;;;5.75;0.47;;;12.40;86.30;;;;;;5032060;28;20079;-84
2023/01/01 08:27:59;;;;;;;4.75;0.70;;;12.40;86.30;;;;;;5015389;28;20033;-84
2023/01/01 08:30:25;;;;;;;3.83;0.70;;;12.40;86.10;;;;;;5031988;28;20036;-84
2023/01/01 08:32:51;;;;;;;8.80;0.40;;;12.40;85.80;;;;;;5032472;28;20052;-84
2023/01/01 08:35:17;;;;;;;5.25;0.57;;;12.40;85.90;;;;;;5032094;28;20106;-84
2023/01/01 08:37:43;;;;;;;3.65;0.50;;;12.40;85.80;;;;;;5032418;28;20120;-83
2023/01/01 08:40:11;;;;;;;4.47;0.40;;;12.40;85.70;;;;;;5033775;28;20041;-84
2023/01/01 08:42:36;;;;;;;7.05;0.60;;;12.40;85.40;;;;;;5032489;28;20116;-84
2023/01/01 08:45:02;;;;;;;5.57;0.82;;;12.50;85.60;;;;;;5031903;28;20068;-83
2023/01/01 08:47:28;;;;;;;6.47;0.40;;;12.50;85.50;;;;;;5015751;28;20156;-83
2023/01/01 08:49:54;;;;;;;5.05;0.63;;;12.50;85.70;;;;;;5031997;28;20371;-84
2023/01/01 08:52:20;;;;;;;2.78;0.45;;;12.50;85.90;;;;;;5031884;28;20022;-83
2023/01/01 08:54:46;;;;;;;7.35;0.70;;;12.50;85.90;;;;;;5032135;28;20022;-83
2023/01/01 08:57:12;;;;;;;5.13;0.40;;;12.50;86.00;;;;;;5034819;28;20029;-84
2023/01/01 08:59:38;;;;;;;5.35;0.85;;;12.50;86.10;;;;;;5036978;28;20034;-83
2023/01/01 09:02:04;;;;;;;7.10;0.68;;;12.50;86.20;;;;;;5035956;28;20359;-83
2023/01/01 09:04:29;;;;;;;5.25;0.60;;;12.50;86.30;;;;;;5036943;28;20065;-83
2023/01/01 09:06:55;;;;;;;4.90;0.50;;;12.50;86.50;;;;;;5037079;28;20057;-83
2023/01/01 09:09:21;;;;;;;4.72;0.73;;;12.50;86.70;;;;;;5038575;28;20084;-89
2023/01/01 09:11:52;;;;;;;5.13;0.70;;;12.50;86.90;;;;;;5038910;28;20405;-90
2023/01/01 09:14:19;;;;;;;3.83;0.50;;;12.60;87.30;;;;;;5038820;28;20029;-89
2023/01/01 09:16:45;;;;;;;4.40;0.60;;;12.60;87.50;;;;;;5038443;28;20128;-89
2023/01/01 09:19:11;;;;;;;3.53;0.68;;;12.60;87.80;;;;;;5038232;28;20080;-89
2023/01/01 09:21:37;;;;;;;5.35;0.73;;;12.60;88.10;;;;;;5037667;28;20022;-90
2023/01/01 09:24:03;;;;;;;3.65;0.40;;;12.60;88.30;;;;;;5037577;28;20083;-88
2023/01/01 09:26:31;;;;;;;5.13;0.77;;;12.60;88.70;;;;;;5036983;28;20025;-89
2023/01/01 09:28:57;;;;;;;7.00;0.60;;;12.60;88.90;;;;;;5037469;28;20071;-89
2023/01/01 09:31:23;;;;;;;7.93;1.10;;;12.60;89.10;;;;;;5038119;28;20026;-88
2023/01/01 09:33:49;;;;;;;3.55;0.60;;;12.70;89.40;;;;;;5038092;28;20075;-90
2023/01/01 09:36:35;;;;;;;7.65;0.60;;;12.60;89.60;;;;;;5037595;28;20029;-90
2023/01/01 09:39:10;;;;;;;6.68;0.95;;;12.60;90.00;;;;;;5053341;28;20587;-83
2023/01/01 09:42:08;;;;;;;6.82;0.63;;;12.60;90.10;;;;;;5035913;28;20033;-83
2023/01/01 09:44:37;;;;;;;9.40;1.02;;;12.60;90.10;;;;;;5034708;28;20024;-84
2023/01/01 09:47:11;;;;;;;5.28;0.73;;;12.60;90.20;;;;;;5034977;28;20061;-84
2023/01/01 09:49:44;;;;;;;5.30;0.80;;;12.60;90.30;;;;;;5034716;28;20078;-83
2023/01/01 09:52:12;;;;;;;14.25;1.02;;;12.70;90.40;;;;;;5036188;28;20053;-83
2023/01/01 09:54:46;;;;;;;9.40;1.65;;;12.70;90.50;;;;;;5035261;28;20068;-82
2023/01/01 09:57:13;;;;;;;6.97;0.68;;;12.70;90.50;;;;;;5039754;28;20048;-83
2023/01/01 09:59:39;;;;;;;7.43;0.95;;;12.70;90.60;;;;;;5038339;28;20025;-83
2023/01/01 10:02:35;;;;;;;9.02;0.70;;;12.70;90.70;;;;;;5036998;28;20021;-83
2023/01/01 10:05:32;;;;;;;9.10;1.02;;;12.70;90.80;;;;;;5037674;28;20026;-82
2023/01/01 10:08:33;;;;;;;8.45;0.98;;;12.80;91.00;;;;;;5046730;28;20128;-82
2023/01/01 10:11:23;;;;;;;8.85;0.93;;;12.80;91.20;;;;;;5045205;28;20041;-88
2023/01/01 10:13:50;;;;;;;6.15;0.82;;;12.80;91.20;;;;;;5035962;28;20492;-88
2023/01/01 10:16:39;;;;;;;10.20;1.23;;;12.80;91.40;;;;;;5020218;28;20562;-88
2023/01/01 10:19:23;;;;;;;6.80;0.98;;;12.80;91.50;;;;;;5035910;28;20036;-88
2023/01/01 10:21:51;;;;;;;5.85;0.90;;;12.80;91.80;;;;;;5035695;28;20028;-89
2023/01/01 10:24:35;;;;;;;6.80;1.40;;;12.80;92.20;;;;;;5035785;28;20029;-89
2023/01/01 10:27:04;;;;;;;7.35;1.85;;;12.80;92.60;;;;;;5035596;28;20029;-88
2023/01/01 10:29:39;;;;;;;12.00;1.55;;;12.70;93.00;;;;;;5035318;28;20026;-90
2023/01/01 10:32:27;;;;;;;10.45;1.98;;;12.70;93.70;;;;;;5035629;28;20136;-89
2023/01/01 10:34:54;;;;;;;8.43;1.13;;;12.60;93.70;;;;;;5035465;28;20025;-88
2023/01/01 10:37:20;;;;;;;8.80;0.80;;;12.60;94.00;;;;;;5035428;28;20017;-88
2023/01/01 10:39:51;;;;;;;7.68;1.10;;;12.60;94.10;;;;;;5035726;28;20025;-89
2023/01/01 10:42:17;;;;;;;8.95;0.82;;;12.40;94.10;;;;;;5019481;28;20032;-90
2023/01/01 10:44:43;;;;;;;10.02;1.83;;;12.50;94.30;;;;;;5018535;28;20124;-83
2023/01/01 10:47:28;;;;;;;7.75;1.15;;;12.50;94.50;;;;;;5035300;28;20030;-89
2023/01/01 10:49:58;;;;;;;8.57;1.30;;;12.40;94.70;;;;;;5034603;28;20036;-89
2023/01/01 10:52:35;;;;;;;8.27;1.00;;;12.40;95.00;;;;;;5034603;28;20110;-88
2023/01/01 10:55:01;;;;;;;7.15;1.13;;;12.30;95.10;;;;;;5034369;28;20115;-88
2023/01/01 10:57:27;;;;;;;9.45;1.20;;;12.30;95.50;;;;;;5034812;28;20018;-89
2023/01/01 10:59:53;;;;;;;9.90;1.38;;;12.30;95.80;;;;;;5034694;28;20496;-88
2023/01/01 11:02:22;;;;;;;8.73;0.85;;;12.20;96.00;;;;;;5034666;28;20025;-88
2023/01/01 11:04:49;;;;;;;4.63;0.68;;;12.20;96.10;;;;;;5034532;28;20048;-88
2023/01/01 11:07:27;;;;;;;6.88;0.80;;;12.20;96.50;;;;;;5034682;28;20123;-87
2023/01/01 11:09:59;;;;;;;7.15;1.05;;;12.20;96.70;;;;;;5034268;28;20045;-87
2023/01/01 11:12:30;;;;;;;5.78;0.77;;;12.20;96.90;;;;;;5034572;28;20018;-87
2023/01/01 11:14:58;;;;;;;8.88;0.93;;;12.30;97.00;;;;;;5034210;28;20044;-88
2023/01/01 11:17:29;;;;;;;7.95;1.10;;;12.40;97.20;;;;;;5034901;28;20026;-88
2023/01/01 11:19:57;;;;;;;5.13;0.70;;;12.40;97.30;;;;;;5037345;28;20029;-88
2023/01/01 11:22:38;;;;;;;4.60;0.88;;;12.50;97.30;;;;;;5036877;28;20027;-87
2023/01/01 11:25:24;;;;;;;6.57;1.13;;;12.60;97.40;;;;;;5037149;28;20021;-89
2023/01/01 11:27:50;;;;;;;7.50;1.48;;;12.60;97.50;;;;;;5035434;28;20071;-83
2023/01/01 11:30:27;;;;;;;6.50;1.10;;;12.70;97.40;;;;;;5034032;28;20060;-84
2023/01/01 11:33:01;;;;;;;12.55;1.33;;;12.70;97.50;;;;;;5032895;28;20084;-84
2023/01/01 11:35:30;;;;;;;7.05;1.52;;;12.70;97.60;;;;;;5033006;28;20405;-83
2023/01/01 11:37:57;;;;;;;5.80;1.60;;;12.70;97.60;;;;;;5032651;28;20078;-83
2023/01/01 11:40:25;;;;;;;10.35;1.48;;;12.80;97.80;;;;;;5033906;28;20074;-83
2023/01/01 11:43:15;;;;;;;5.28;1.30;;;12.80;97.90;;;;;;5032764;28;20036;-83
2023/01/01 11:45:42;;;;;;;5.32;1.67;;;12.90;98.00;;;;;;5032512;28;20075;-83
2023/01/01 11:48:30;;;;;;;6.68;2.30;;;12.90;98.00;;;;;;5016054;28;20116;-83
2023/01/01 11:51:04;;;;;;;8.43;1.90;;;12.90;98.00;;;;;;5021589;28;20041;-83
2023/01/01 11:53:42;;;;;;;8.82;2.03;;;13.00;98.10;;;;;;5012321;28;20449;-83
2023/01/01 11:56:17;;;;;;;7.45;1.48;;;13.00;98.20;;;;;;5010961;28;20390;-83
2023/01/01 11:58:57;;;;;;;6.57;1.75;;;13.00;98.20;;;;;;5011323;28;20546;-82
2023/01/01 12:01:40;;;;;;;10.35;2.55;;;13.10;98.30;;;;;;5012843;28;20466;-83
2023/01/01 12:04:18;;;;;;;8.15;1.95;;;13.10;98.40;;;;;;5012469;28;20125;-83
2023/01/01 12:07:03;;;;;;;12.48;1.80;;;13.20;98.40;;;;;;5012133;28;20125;-84
2023/01/01 12:09:47;;;;;;;8.30;1.88;;;13.20;98.40;;;;;;5012467;28;20585;-83
2023/01/01 12:12:33;;;;;;;7.80;1.92;;;13.30;98.50;;;;;;5013611;28;20021;-84
2023/01/01 12:15:23;;;;;;;5.40;1.50;;;13.30;98.50;;;;;;5012148;28;20018;-83
2023/01/01 12:18:23;;;;;;;9.98;1.60;;;13.40;98.70;;;;;;5012375;28;20476;-82
2023/01/01 12:20:58;;;;;;;9.73;2.10;;;13.50;98.60;;;;;;5043301;28;20544;-82
2023/01/01 12:23:24;;;;;;;10.93;3.20;;;13.60;98.20;;;;;;5033004;28;20022;-84
2023/01/01 12:26:12;;;;;;;18.60;9.40;;;13.60;98.00;;;;;;5032975;28;20068;-85
2023/01/01 12:29:26;;;;;;;23.38;11.43;;;13.60;97.90;;;;;;5031263;28;20548;-85
2023/01/01 12:32:21;;;;;;;13.75;5.22;;;13.70;97.80;;;;;;5046284;28;20017;-85
2023/01/01 12:35:13;;;;;;;12.80;5.47;;;13.70;97.50;;;;;;5029000;28;20021;-84
2023/01/01 12:38:32;;;;;;;16.20;3.13;;;14.10;98.10;;;;;;5031583;28;20017;-85
2023/01/01 12:41:30;;;;;;;14.73;1.95;;;14.70;99.10;;;;;;4978207;28;20057;-84
2023/01/01 12:44:02;;;;;;;11.02;1.83;;;15.50;98.40;;;;;;5001734;28;20046;-84
2023/01/01 12:46:44;;;;;;;8.73;1.95;;;16.10;96.70;;;;;;5035975;28;20091;-84
2023/01/01 12:49:38;;;;;;;7.35;1.58;;;16.40;94.60;;;;;;5036398;28;20034;-84
2023/01/01 12:52:26;;;;;;;9.98;2.10;;;16.50;92.70;;;;;;5033322;28;20117;-85
2023/01/01 12:55:28;;;;;;;8.32;2.13;;;16.50;91.20;;;;;;5031554;28;20033;-86
2023/01/01 12:58:07;;;;;;;8.45;1.77;;;16.40;91.40;;;;;;5031936;28;20375;-85
2023/01/01 13:00:36;;;;;;;9.35;1.63;;;16.30;90.60;;;;;;5031986;28;20381;-84
2023/01/01 13:03:23;;;;;;;14.52;3.67;;;16.10;90.20;;;;;;5031489;28;20097;-84
2023/01/01 13:06:00;;;;;;;13.73;3.25;;;15.90;89.70;;;;;;5032005;28;20120;-85
2023/01/01 13:08:26;;;;;;;10.65;2.30;;;15.80;89.20;;;;;;5031591;28;20056;-85
2023/01/01 13:10:55;;;;;;;9.10;1.88;;;15.50;89.20;;;;;;5031699;28;20411;-84